Aérodrome :
LOGIN :

S'inscrire | Disclaimer

   EN    FR    IT 

 










Légende :    VFR   VFR Marginal   IFR   IFR Intensif   IFR Très Intensif
Visi : 
Plafond : 
>= 8 km
>= 3000ft
5 à 8 km
1000 à 3000 ft
1500m à 5 km
500 à 1000 ft
800 à 1500m
200 à 500 ft
< 800m
< 200 ft
Symboles :   Orages  Brouillard  Fortes neiges  Fortes précipitations  Vent > 20 kt
SIGMETs :   Divers  Orages  Givrage  Turbulence  Onde Orograph.  Cendres Volcan.






- Altitude de l'aérodrome : 755 ft
- Code IATA : RWN


UKLR - Rivne

DERNIER METAR :
  • 041000Z 29006MPS 250V320 CAVOK 10/M08 Q1024 NOSIG

METARs EXPIRÉS :
  • 040900Z 31004MPS 250V020 CAVOK 10/M07 Q1023 NOSIG
  • 040800Z 31003MPS 220V350 CAVOK 08/M05 Q1023 NOSIG

TAF TAF UKLR
Valide du 04 à 09h jusqu'au 04 à 18h UTC


040810Z 0409/0418 28004G09MPS 9999 SCT026 TX12/0413Z TN09/0418Z
TEMPO 0409/0416 32007G12MPS



MET'MAP, la Météo Aéronautique d'un coup d'oeil ! - Copyright ORBIFLY Décembre 2007 - Disclaimer

ORBIFLY MET'MAP TEAM :

Programmation & Développement : Alexandra Zaïnal
Sur une idée originale de : Baudouin d'Aumeries
Assistance à la programmation : Marc-Olivier Méhu
Soutien technique & logistique : Manuel Goepfert

Contact : metmap@orbifly.com




SOURCES & CREDITS :

   NOAA